Terminal Aerodrome Forecast
Issued by NWS Charleston, WV

Current Version | Previous Version | Graphics & Text | Print | Product List | Glossary On
Versions: 1 2 3 4 5 6 7 8 9 10 11 12 13 14 15 16 17 18 19 20 21 22 23 24
000
FTUS41 KRLX 302300
TAFBKW
TAF
KBKW 302334Z 0100/0124 28003KT P6SM SKC
     FM010500 00000KT P6SM FEW035
     FM011200 00000KT P6SM BKN015
     FM011400 00000KT P6SM SCT015
     FM011800 27006KT P6SM FEW025
     FM012300 31004KT P6SM SCT040=

USA.gov is the U.S. government's official web portal to all federal, state and local government web resources and services.